Time;durP1;ratioP1;P1;durP2;ratioP2;P2;SDS_P1;SDS_P2;PMS_P1;PMS_P2;Temp;Humidity;BMP_temperature;BMP_pressure;BME280_temperature;BME280_humidity;BME280_pressure;Samples;Min_cycle;Max_cycle;Signal;HPM_P1;HPM_P2
2021/10/22 00:01:41;;;;;;;;;21.00;18.75;;;;;-142.59;100.00;56100.38;5052464;28;64878;-75
2021/10/22 00:04:07;;;;;;;;;21.00;17.75;;;;;-142.59;100.00;56100.38;5052884;28;50258;-70
2021/10/22 00:06:33;;;;;;;;;20.50;19.00;;;;;-142.59;100.00;56100.38;5053055;28;50562;-69
2021/10/22 00:08:58;;;;;;;;;24.25;24.25;;;;;-142.59;100.00;56100.38;5051161;28;61016;-71
2021/10/22 00:11:24;;;;;;;;;19.25;17.75;;;;;-142.59;100.00;56100.38;5035013;28;49974;-69
2021/10/22 00:13:49;;;;;;;;;24.75;18.75;;;;;-142.59;100.00;56100.38;5034654;28;53086;-69
2021/10/22 00:16:15;;;;;;;;;22.50;19.75;;;;;-142.59;100.00;56100.38;5052897;28;49650;-69
2021/10/22 00:18:41;;;;;;;;;22.75;20.00;;;;;-142.59;100.00;56100.38;5052392;28;49787;-71
2021/10/22 00:21:06;;;;;;;;;27.25;25.50;;;;;-142.59;100.00;56100.38;5034065;28;62968;-71
2021/10/22 00:23:32;;;;;;;;;24.50;23.25;;;;;-142.59;100.00;56100.38;5034809;28;49725;-71
2021/10/22 00:25:57;;;;;;;;;21.25;20.00;;;;;-142.59;100.00;56100.38;5052603;28;49881;-71
2021/10/22 00:28:22;;;;;;;;;20.25;18.00;;;;;-142.59;100.00;56100.38;5018149;28;49701;-69
2021/10/22 00:30:48;;;;;;;;;19.50;18.50;;;;;-142.59;100.00;56100.38;5052000;28;63572;-69
2021/10/22 00:33:13;;;;;;;;;25.00;20.50;;;;;-142.59;100.00;56100.38;5033899;28;68406;-69
2021/10/22 00:35:40;;;;;;;;;20.25;17.00;;;;;-142.59;100.00;56100.38;5051561;28;66075;-69
2021/10/22 00:38:05;;;;;;;;;22.00;22.00;;;;;-142.59;100.00;56100.38;5034779;28;49795;-68
2021/10/22 00:40:31;;;;;;;;;23.75;20.00;;;;;-142.59;100.00;56100.38;5051662;28;64614;-68
2021/10/22 00:42:56;;;;;;;;;24.00;21.00;;;;;-142.59;100.00;56100.38;5033901;28;62289;-69
2021/10/22 00:45:22;;;;;;;;;25.25;20.00;;;;;-142.59;100.00;56100.38;5034256;28;49743;-69
2021/10/22 00:47:47;;;;;;;;;19.75;19.25;;;;;-142.59;100.00;56100.38;5034473;28;50133;-69
2021/10/22 00:50:13;;;;;;;;;19.75;18.25;;;;;-142.59;100.00;56100.38;5017959;28;49745;-69
2021/10/22 00:52:39;;;;;;;;;20.25;17.25;;;;;-142.59;100.00;56100.38;5033437;28;72995;-73
2021/10/22 00:55:05;;;;;;;;;20.50;18.75;;;;;-142.59;100.00;56100.38;5052095;28;49701;-70
2021/10/22 00:57:30;;;;;;;;;20.00;19.50;;;;;-142.59;100.00;56100.38;5017688;28;49682;-76
2021/10/22 00:59:55;;;;;;;;;22.25;19.50;;;;;-142.59;100.00;56100.38;5017753;28;49891;-71
2021/10/22 01:02:21;;;;;;;;;21.25;17.75;;;;;-142.59;100.00;56100.38;5033720;28;51016;-69
2021/10/22 01:04:46;;;;;;;;;21.75;20.00;;;;;-142.59;100.00;56100.38;5051902;28;49835;-75
2021/10/22 01:07:15;;;;;;;;;15.75;15.25;;;;;-142.59;100.00;56100.38;5034047;28;49867;-76
2021/10/22 01:09:43;;;;;;;;;22.50;19.00;;;;;-142.59;100.00;56100.38;5052117;28;49627;-69
2021/10/22 01:12:10;;;;;;;;;21.25;20.50;;;;;-142.59;100.00;56100.38;5051976;28;49969;-72
2021/10/22 01:14:37;;;;;;;;;20.75;17.00;;;;;-142.59;100.00;56100.38;5052202;28;49655;-74
2021/10/22 01:17:02;;;;;;;;;20.00;18.25;;;;;-142.59;100.00;56100.38;5033576;28;49906;-70
2021/10/22 01:19:29;;;;;;;;;17.75;16.00;;;;;-142.59;100.00;56100.38;5029771;28;49927;-75
2021/10/22 01:21:54;;;;;;;;;18.25;18.00;;;;;-142.59;100.00;56100.38;5013911;28;51535;-75
2021/10/22 01:24:19;;;;;;;;;20.25;19.25;;;;;-142.59;100.00;56100.38;5030308;28;49861;-71
2021/10/22 01:26:45;;;;;;;;;24.00;16.50;;;;;-142.59;100.00;56100.38;5030056;28;55924;-76
2021/10/22 01:29:10;;;;;;;;;22.00;17.50;;;;;-142.59;100.00;56100.38;5031512;28;55572;-76
2021/10/22 01:31:37;;;;;;;;;19.00;19.00;;;;;-142.59;100.00;56100.38;5031492;28;50211;-70
2021/10/22 01:34:03;;;;;;;;;22.50;19.00;;;;;-142.59;100.00;56100.38;5030006;28;49700;-69
2021/10/22 01:36:29;;;;;;;;;21.50;19.00;;;;;-142.59;100.00;56100.38;5031609;28;49710;-70
2021/10/22 01:38:55;;;;;;;;;17.25;17.25;;;;;-142.59;100.00;56100.38;5030353;28;50002;-68
2021/10/22 01:41:21;;;;;;;;;17.50;16.50;;;;;-142.59;100.00;56100.38;5030076;28;49716;-71
2021/10/22 01:43:48;;;;;;;;;17.25;17.25;;;;;-142.59;100.00;56100.38;5031547;28;49978;-69
2021/10/22 01:46:14;;;;;;;;;19.25;16.25;;;;;-142.59;100.00;56100.38;5030334;28;49811;-69
2021/10/22 01:48:40;;;;;;;;;15.25;14.50;;;;;-142.59;100.00;56100.38;5031331;28;49638;-69
2021/10/22 01:51:06;;;;;;;;;16.75;14.25;;;;;-142.59;100.00;56100.38;5029886;28;50545;-69
2021/10/22 01:53:31;;;;;;;;;15.50;15.00;;;;;-142.59;100.00;56100.38;5030249;28;49584;-69
2021/10/22 01:55:57;;;;;;;;;15.00;15.00;;;;;-142.59;100.00;56100.38;5029196;28;66962;-69
2021/10/22 01:58:22;;;;;;;;;14.50;14.50;;;;;-142.59;100.00;56100.38;5013673;28;49899;-69
2021/10/22 02:00:48;;;;;;;;;20.25;18.75;;;;;-142.59;100.00;56100.38;5031020;28;49827;-69
2021/10/22 02:03:13;;;;;;;;;19.50;16.50;;;;;-142.59;100.00;56100.38;5013440;28;49531;-69
2021/10/22 02:05:39;;;;;;;;;19.00;18.25;;;;;-142.59;100.00;56100.38;5013217;28;49869;-69
2021/10/22 02:08:04;;;;;;;;;15.50;15.00;;;;;-142.59;100.00;56100.38;5031378;28;49673;-69
2021/10/22 02:10:29;;;;;;;;;18.75;17.75;;;;;-142.59;100.00;56100.38;5030639;28;67927;-68
2021/10/22 02:12:55;;;;;;;;;19.25;19.25;;;;;-142.59;100.00;56100.38;5013037;28;51111;-69
2021/10/22 02:15:20;;;;;;;;;19.75;17.25;;;;;-142.59;100.00;56100.38;5030858;28;49741;-68
2021/10/22 02:17:46;;;;;;;;;25.75;23.00;;;;;-142.59;100.00;56100.38;5031402;28;49614;-69
2021/10/22 02:20:11;;;;;;;;;25.00;21.25;;;;;-142.59;100.00;56100.38;5049782;28;71948;-69
2021/10/22 02:22:36;;;;;;;;;23.75;19.75;;;;;-142.59;100.00;56100.38;5032521;28;62577;-69
2021/10/22 02:25:03;;;;;;;;;17.50;15.75;;;;;-142.59;100.00;56100.38;5032309;28;68563;-68
2021/10/22 02:27:28;;;;;;;;;21.50;20.50;;;;;-142.59;100.00;56100.38;5033128;28;49889;-68
2021/10/22 02:29:54;;;;;;;;;19.50;18.25;;;;;-142.59;100.00;56100.38;5031948;28;69366;-69
2021/10/22 02:32:19;;;;;;;;;23.00;19.25;;;;;-142.59;100.00;56100.38;5052688;28;72498;-68
2021/10/22 02:34:44;;;;;;;;;20.25;20.00;;;;;-142.59;100.00;56100.38;5053354;28;63976;-68
2021/10/22 02:37:10;;;;;;;;;22.50;20.50;;;;;-142.59;100.00;56100.38;5054131;28;55233;-69
2021/10/22 02:39:36;;;;;;;;;15.50;10.75;;;;;-142.59;100.00;56100.38;5054199;28;50227;-68
2021/10/22 02:42:02;;;;;;;;;23.00;21.00;;;;;-142.59;100.00;56100.38;5054371;28;49806;-67
2021/10/22 02:44:27;;;;;;;;;24.25;21.25;;;;;-142.59;100.00;56100.38;5036644;28;49841;-69
2021/10/22 02:46:53;;;;;;;;;22.75;19.50;;;;;-142.59;100.00;56100.38;5054218;28;49800;-69
2021/10/22 02:49:18;;;;;;;;;26.00;24.50;;;;;-142.59;100.00;56100.38;5019255;28;51168;-68
2021/10/22 02:51:44;;;;;;;;;17.00;15.00;;;;;-142.59;100.00;56100.38;5053344;28;69303;-68
2021/10/22 02:54:09;;;;;;;;;19.25;17.75;;;;;-142.59;100.00;56100.38;5053930;28;56001;-68
2021/10/22 02:56:34;;;;;;;;;25.25;25.25;;;;;-142.59;100.00;56100.38;5054431;28;49779;-69
2021/10/22 02:59:00;;;;;;;;;20.50;19.50;;;;;-142.59;100.00;56100.38;5053169;28;71434;-75
2021/10/22 03:01:25;;;;;;;;;21.75;19.00;;;;;-142.59;100.00;56100.38;5035154;28;66036;-68
2021/10/22 03:03:50;;;;;;;;;22.00;20.50;;;;;-142.59;100.00;56100.38;5035138;28;67156;-75
2021/10/22 03:06:16;;;;;;;;;21.00;21.00;;;;;-142.59;100.00;56100.38;5035786;28;49689;-74
2021/10/22 03:08:41;;;;;;;;;12.00;12.00;;;;;-142.59;100.00;56100.38;5053873;28;50707;-74
2021/10/22 03:11:07;;;;;;;;;20.00;15.50;;;;;-142.59;100.00;56100.38;5019433;28;50662;-69
2021/10/22 03:13:32;;;;;;;;;17.00;15.75;;;;;-142.59;100.00;56100.38;5035115;28;65912;-73
2021/10/22 03:15:58;;;;;;;;;16.50;16.50;;;;;-142.59;100.00;56100.38;5035093;28;62609;-73
2021/10/22 03:18:23;;;;;;;;;16.50;14.25;;;;;-142.59;100.00;56100.38;5035180;28;50669;-73
2021/10/22 03:20:48;;;;;;;;;15.25;15.25;;;;;-142.59;100.00;56100.38;5053749;28;49993;-69
2021/10/22 03:23:14;;;;;;;;;23.25;18.75;;;;;-142.59;100.00;56100.38;5035231;28;61599;-71
2021/10/22 03:25:39;;;;;;;;;18.50;15.25;;;;;-142.59;100.00;56100.38;5053840;28;49814;-76
2021/10/22 03:28:05;;;;;;;;;13.25;13.25;;;;;-142.59;100.00;56100.38;5053450;28;50922;-69
2021/10/22 03:30:34;;;;;;;;;13.00;13.00;;;;;-142.59;100.00;56100.38;5035853;28;50010;-72
2021/10/22 03:33:00;;;;;;;;;17.50;15.00;;;;;-142.59;100.00;56100.38;5002700;28;49907;-69
2021/10/22 03:35:25;;;;;;;;;14.50;12.50;;;;;-142.59;100.00;56100.38;5053754;28;49810;-71
2021/10/22 03:37:51;;;;;;;;;13.00;11.00;;;;;-142.59;100.00;56100.38;5035418;28;49871;-68
2021/10/22 03:40:17;;;;;;;;;15.00;14.25;;;;;-142.59;100.00;56100.38;5018961;28;49792;-72
2021/10/22 03:42:42;;;;;;;;;10.25;10.25;;;;;-142.59;100.00;56100.38;5053433;28;49743;-71
2021/10/22 03:45:08;;;;;;;;;16.25;14.50;;;;;-142.59;100.00;56100.38;5035524;28;49674;-68
2021/10/22 03:47:33;;;;;;;;;15.75;12.00;;;;;-142.59;100.00;56100.38;5035042;28;51707;-74
2021/10/22 03:49:59;;;;;;;;;12.25;10.00;;;;;-142.59;100.00;56100.38;5052090;28;70578;-68
2021/10/22 03:52:24;;;;;;;;;11.25;9.50;;;;;-142.59;100.00;56100.38;5034792;28;62951;-73
2021/10/22 03:54:50;;;;;;;;;15.00;15.00;;;;;-142.59;100.00;56100.38;5053450;28;49764;-76
2021/10/22 03:57:15;;;;;;;;;15.75;13.50;;;;;-142.59;100.00;56100.38;5053013;28;49668;-75
2021/10/22 03:59:40;;;;;;;;;14.50;13.50;;;;;-142.59;100.00;56100.38;5018402;28;54204;-72
2021/10/22 04:02:06;;;;;;;;;12.00;12.00;;;;;-142.59;100.00;56100.38;5052350;28;64198;-74
2021/10/22 04:04:31;;;;;;;;;19.00;15.50;;;;;-142.59;100.00;56100.38;5034348;28;57520;-70
2021/10/22 04:06:57;;;;;;;;;14.75;14.75;;;;;-142.59;100.00;56100.38;5052927;28;51003;-74
2021/10/22 04:09:26;;;;;;;;;17.00;15.25;;;;;-142.59;100.00;56100.38;5052704;28;60364;-69
2021/10/22 04:11:52;;;;;;;;;14.50;13.00;;;;;-142.59;100.00;56100.38;5035049;28;49775;-70
2021/10/22 04:14:19;;;;;;;;;13.50;13.50;;;;;-142.59;100.00;56100.38;5035111;28;49661;-70
2021/10/22 04:16:44;;;;;;;;;18.25;14.75;;;;;-142.59;100.00;56100.38;5034618;28;50435;-71
2021/10/22 04:19:09;;;;;;;;;14.00;13.50;;;;;-142.59;100.00;56100.38;5051726;28;63912;-73
2021/10/22 04:21:35;;;;;;;;;14.00;13.75;;;;;-142.59;100.00;56100.38;5052955;28;50242;-70
2021/10/22 04:24:00;;;;;;;;;15.75;15.75;;;;;-142.59;100.00;56100.38;5052175;28;60809;-69
2021/10/22 04:26:26;;;;;;;;;14.25;14.25;;;;;-142.59;100.00;56100.38;5051921;28;73560;-67
2021/10/22 04:28:51;;;;;;;;;16.00;11.50;;;;;-142.59;100.00;56100.38;5017698;28;58701;-69
2021/10/22 04:31:16;;;;;;;;;13.75;13.75;;;;;-142.59;100.00;56100.38;5034029;28;65302;-72
2021/10/22 04:33:42;;;;;;;;;16.50;13.75;;;;;-142.59;100.00;56100.38;5052568;28;49564;-68
2021/10/22 04:36:09;;;;;;;;;17.50;14.75;;;;;-142.59;100.00;56100.38;5051865;28;64855;-69
2021/10/22 04:41:18;;;;;;;;;16.25;14.00;;;;;-142.59;100.00;56100.38;5052581;28;49845;-70
2021/10/22 04:43:44;;;;;;;;;19.75;16.25;;;;;-142.59;100.00;56100.38;5017081;28;64741;-70
2021/10/22 04:46:09;;;;;;;;;18.00;17.25;;;;;-142.59;100.00;56100.38;5033725;28;67457;-70
2021/10/22 04:48:34;;;;;;;;;19.25;18.25;;;;;-142.59;100.00;56100.38;5033247;28;72202;-68
2021/10/22 04:51:00;;;;;;;;;22.00;19.25;;;;;-142.59;100.00;56100.38;5034465;28;49689;-68
2021/10/22 04:53:26;;;;;;;;;17.25;14.75;;;;;-142.59;100.00;56100.38;5017229;28;49900;-69
2021/10/22 04:55:52;;;;;;;;;21.50;17.00;;;;;-142.59;100.00;56100.38;5052041;28;51078;-68
2021/10/22 04:58:18;;;;;;;;;19.25;19.25;;;;;-142.59;100.00;56100.38;5017675;28;49764;-68
2021/10/22 05:00:43;;;;;;;;;22.25;17.75;;;;;-142.59;100.00;56100.38;5051177;28;69766;-70
2021/10/22 05:03:08;;;;;;;;;23.75;18.00;;;;;-142.59;100.00;56100.38;5017710;28;49917;-74
2021/10/22 05:05:34;;;;;;;;;19.50;19.00;;;;;-142.59;100.00;56100.38;5051261;28;71785;-72
2021/10/22 05:07:59;;;;;;;;;21.25;16.00;;;;;-142.59;100.00;56100.38;5033377;28;67560;-69
2021/10/22 05:10:24;;;;;;;;;16.75;14.75;;;;;-142.59;100.00;56100.38;5051759;28;56252;-74
2021/10/22 05:12:50;;;;;;;;;14.50;14.50;;;;;-142.59;100.00;56100.38;5051464;28;58473;-69
2021/10/22 05:15:15;;;;;;;;;18.75;16.75;;;;;-142.59;100.00;56100.38;5040187;28;72617;-77
2021/10/22 05:17:41;;;;;;;;;16.00;15.50;;;;;-142.59;100.00;56100.38;5051153;28;62160;-72
2021/10/22 05:20:08;;;;;;;;;17.50;16.00;;;;;-142.59;100.00;56100.38;5053762;28;50181;-72
2021/10/22 05:22:36;;;;;;;;;15.00;14.00;;;;;-142.59;100.00;56100.38;5019711;28;49654;-71
2021/10/22 05:25:01;;;;;;;;;17.75;17.25;;;;;-142.59;100.00;56100.38;5036903;28;50329;-70
2021/10/22 05:27:27;;;;;;;;;19.00;16.25;;;;;-142.59;100.00;56100.38;5033805;28;49673;-70
2021/10/22 05:29:52;;;;;;;;;23.50;19.00;;;;;-142.59;100.00;56100.38;5035459;28;68329;-77
2021/10/22 05:32:17;;;;;;;;;12.75;12.75;;;;;-142.59;100.00;56100.38;5034847;28;59001;-71
2021/10/22 05:34:43;;;;;;;;;19.25;16.00;;;;;-142.59;100.00;56100.38;5051545;28;50377;-77
2021/10/22 05:37:11;;;;;;;;;17.25;17.25;;;;;-142.59;100.00;56100.38;5051369;28;60436;-86
2021/10/22 05:39:37;;;;;;;;;22.25;20.25;;;;;-142.59;100.00;56100.38;5001006;28;49737;-80
2021/10/22 05:42:02;;;;;;;;;21.50;14.50;;;;;-142.59;100.00;56100.38;5021520;28;49851;-79
2021/10/22 05:44:28;;;;;;;;;23.00;20.75;;;;;-142.59;100.00;56100.38;5051200;28;52651;-73
2021/10/22 05:46:54;;;;;;;;;16.50;15.00;;;;;-142.59;100.00;56100.38;5033007;28;63824;-67
2021/10/22 05:49:20;;;;;;;;;18.25;15.00;;;;;-142.59;100.00;56100.38;5051062;28;49872;-66
2021/10/22 05:51:45;;;;;;;;;17.25;15.50;;;;;-142.59;100.00;56100.38;5056016;28;49911;-67
2021/10/22 05:54:11;;;;;;;;;18.00;16.75;;;;;-142.59;100.00;56100.38;5051374;28;50379;-67
2021/10/22 05:56:36;;;;;;;;;19.75;18.25;;;;;-142.59;100.00;56100.38;5053584;28;66377;-73
2021/10/22 05:59:05;;;;;;;;;13.75;13.75;;;;;-142.59;100.00;56100.38;5000285;28;49892;-74
2021/10/22 06:01:30;;;;;;;;;17.25;17.25;;;;;-142.59;100.00;56100.38;5016692;28;50065;-74
2021/10/22 06:03:56;;;;;;;;;18.75;17.75;;;;;-142.59;100.00;56100.38;5053225;28;49828;-73
2021/10/22 06:06:21;;;;;;;;;17.00;14.50;;;;;-142.59;100.00;56100.38;5063943;28;49259;-73
2021/10/22 06:08:47;;;;;;;;;13.00;13.00;;;;;-142.59;100.00;56100.38;5051643;28;66146;-76
2021/10/22 06:11:12;;;;;;;;;14.50;13.50;;;;;-142.59;100.00;56100.38;5051296;28;49800;-75
2021/10/22 06:13:38;;;;;;;;;16.00;14.25;;;;;-142.59;100.00;56100.38;5051195;28;50028;-77
2021/10/22 06:16:04;;;;;;;;;20.00;17.00;;;;;-142.59;100.00;56100.38;5054156;28;50478;-74
2021/10/22 06:18:30;;;;;;;;;11.25;11.25;;;;;-142.59;100.00;56100.38;5032851;28;49677;-77
2021/10/22 06:21:02;;;;;;;;;18.00;14.25;;;;;-142.59;100.00;56100.38;5016551;28;50035;-79
2021/10/22 06:26:11;;;;;;;;;13.75;12.50;;;;;-142.59;100.00;56100.38;5050914;28;49731;-80
2021/10/22 06:28:36;;;;;;;;;15.00;13.00;;;;;-142.59;100.00;56100.38;5015714;28;68577;-74
2021/10/22 06:31:02;;;;;;;;;18.00;17.25;;;;;-142.59;100.00;56100.38;5032376;28;61658;-76
2021/10/22 06:33:27;;;;;;;;;15.00;15.00;;;;;-142.59;100.00;56100.38;5014970;28;50476;-74
2021/10/22 06:35:54;;;;;;;;;14.50;14.50;;;;;-142.59;100.00;56100.38;5054523;28;65039;-74
2021/10/22 06:38:20;;;;;;;;;20.50;17.00;;;;;-142.59;100.00;56100.38;5060618;28;49758;-81
2021/10/22 06:40:45;;;;;;;;;18.00;13.25;;;;;-142.59;100.00;56100.38;5042675;28;49606;-70
2021/10/22 06:43:11;;;;;;;;;23.00;21.50;;;;;-142.59;100.00;56100.38;5056144;28;71108;-78
2021/10/22 06:45:36;;;;;;;;;20.50;19.50;;;;;-142.59;100.00;56100.38;5053806;28;49732;-73
2021/10/22 06:48:02;;;;;;;;;14.25;14.25;;;;;-142.59;100.00;56100.38;5036717;28;65085;-72
2021/10/22 06:50:27;;;;;;;;;18.75;17.50;;;;;-142.59;100.00;56100.38;5039489;28;49916;-72
2021/10/22 06:52:53;;;;;;;;;17.75;17.75;;;;;-142.59;100.00;56100.38;5055297;28;50573;-72
2021/10/22 06:55:18;;;;;;;;;15.25;15.25;;;;;-142.59;100.00;56100.38;5030661;28;49854;-71
2021/10/22 06:57:44;;;;;;;;;14.75;14.75;;;;;-142.59;100.00;56100.38;5018785;28;49424;-73
2021/10/22 07:00:13;;;;;;;;;19.25;17.50;;;;;-142.59;100.00;56100.38;5014753;28;61337;-75
2021/10/22 07:02:59;;;;;;;;;18.25;17.25;;;;;-142.59;100.00;56100.38;5032889;28;50458;-77
2021/10/22 07:07:53;;;;;;;;;15.25;15.25;;;;;-142.59;100.00;56100.38;5017633;28;49863;-71
2021/10/22 07:10:19;;;;;;;;;15.25;14.50;;;;;-142.59;100.00;56100.38;5049785;28;60662;-69
2021/10/22 07:12:45;;;;;;;;;19.75;18.00;;;;;-142.59;100.00;56100.38;5013687;28;50242;-74
2021/10/22 07:15:10;;;;;;;;;20.75;19.00;;;;;-142.59;100.00;56100.38;5030880;28;49951;-73
2021/10/22 07:17:36;;;;;;;;;18.25;17.00;;;;;-142.59;100.00;56100.38;5050117;28;49798;-73
2021/10/22 07:20:01;;;;;;;;;13.50;13.50;;;;;-142.59;100.00;56100.38;5033922;28;50653;-74
2021/10/22 07:22:32;;;;;;;;;18.50;18.50;;;;;-142.59;100.00;56100.38;5052320;28;50112;-73
2021/10/22 07:24:57;;;;;;;;;22.50;17.25;;;;;-142.59;100.00;56100.38;5021028;28;49811;-75
2021/10/22 07:27:23;;;;;;;;;19.00;18.50;;;;;-142.59;100.00;56100.38;5021482;28;49946;-70
2021/10/22 07:29:49;;;;;;;;;13.75;10.00;;;;;-142.59;100.00;56100.38;5062364;28;49642;-74
2021/10/22 07:32:14;;;;;;;;;15.50;14.00;;;;;-142.59;100.00;56100.38;5022092;28;51758;-73
2021/10/22 07:34:40;;;;;;;;;11.75;10.00;;;;;-142.59;100.00;56100.38;5002223;28;49750;-73
2021/10/22 07:37:05;;;;;;;;;14.75;11.50;;;;;-142.59;100.00;56100.38;5054719;28;69760;-72
2021/10/22 07:39:31;;;;;;;;;12.25;10.25;;;;;-142.59;100.00;56100.38;5023867;28;49794;-72
2021/10/22 07:41:56;;;;;;;;;9.50;9.00;;;;;-142.59;100.00;56100.38;5053891;28;49635;-72
2021/10/22 07:44:22;;;;;;;;;14.00;14.00;;;;;-142.59;100.00;56100.38;5018867;28;49735;-69
2021/10/22 07:46:49;;;;;;;;;10.00;10.00;;;;;-142.59;100.00;56100.38;5053415;28;49966;-70
2021/10/22 07:49:14;;;;;;;;;8.00;8.00;;;;;-142.59;100.00;56100.38;5053731;28;49829;-71
2021/10/22 07:51:41;;;;;;;;;11.50;10.50;;;;;-142.59;100.00;56100.38;5020622;28;52250;-71
2021/10/22 07:54:06;;;;;;;;;10.75;10.75;;;;;-142.59;100.00;56100.38;5054515;28;49777;-70
2021/10/22 07:56:32;;;;;;;;;11.25;11.25;;;;;-142.59;100.00;56100.38;5035656;28;49669;-71
2021/10/22 07:58:57;;;;;;;;;10.50;10.00;;;;;-142.59;100.00;56100.38;5053766;28;49717;-70
2021/10/22 08:01:23;;;;;;;;;11.25;9.50;;;;;-142.59;100.00;56100.38;5053754;28;50595;-69
2021/10/22 08:03:49;;;;;;;;;11.00;11.00;;;;;-142.59;100.00;56100.38;5061986;28;49623;-70
2021/10/22 08:06:15;;;;;;;;;11.00;9.25;;;;;-142.59;100.00;56100.38;5021052;28;49762;-70
2021/10/22 08:08:42;;;;;;;;;10.00;8.50;;;;;-142.59;100.00;56100.38;5047422;28;49844;-70
2021/10/22 08:11:08;;;;;;;;;8.50;7.00;;;;;-142.59;100.00;56100.38;5059078;28;50158;-69
2021/10/22 08:13:33;;;;;;;;;8.75;7.00;;;;;-142.59;100.00;56100.38;5055592;28;70455;-67
2021/10/22 08:15:59;;;;;;;;;8.50;8.25;;;;;-142.59;100.00;56100.38;5052646;28;58366;-67
2021/10/22 08:18:24;;;;;;;;;10.75;9.75;;;;;-142.59;100.00;56100.38;5057223;28;49748;-68
2021/10/22 08:20:55;;;;;;;;;9.50;8.00;;;;;-142.59;100.00;56100.38;5058107;28;52285;-68
2021/10/22 08:23:21;;;;;;;;;15.00;11.25;;;;;-142.59;100.00;56100.38;5054760;28;50212;-67
2021/10/22 08:25:47;;;;;;;;;10.25;10.25;;;;;-142.59;100.00;56100.38;5057943;28;49706;-68
2021/10/22 08:28:12;;;;;;;;;12.00;11.50;;;;;-142.59;100.00;56100.38;5038951;28;49764;-68
2021/10/22 08:30:38;;;;;;;;;14.75;12.25;;;;;-142.59;100.00;56100.38;5054471;28;65144;-75
2021/10/22 08:33:03;;;;;;;;;7.25;7.25;;;;;-142.59;100.00;56100.38;5031405;28;49646;-75
2021/10/22 08:35:29;;;;;;;;;12.50;10.50;;;;;-142.59;100.00;56100.38;5043904;28;49610;-82
2021/10/22 08:37:55;;;;;;;;;6.50;6.50;;;;;-142.59;100.00;56100.38;5019607;28;50197;-84
2021/10/22 08:40:21;;;;;;;;;7.25;7.25;;;;;-142.59;100.00;56100.38;5056273;28;50423;-74
2021/10/22 08:42:47;;;;;;;;;6.25;5.25;;;;;-142.59;100.00;56100.38;5056075;28;49835;-74
2021/10/22 08:45:13;;;;;;;;;9.00;7.50;;;;;-142.59;100.00;56100.38;5056084;28;49697;-75
2021/10/22 08:47:38;;;;;;;;;10.25;7.75;;;;;-142.59;100.00;56100.38;5056676;28;49661;-75
2021/10/22 08:50:09;;;;;;;;;8.50;6.50;;;;;-142.59;100.00;56100.38;5037265;28;51418;-74
2021/10/22 08:52:34;;;;;;;;;9.00;9.00;;;;;-142.59;100.00;56100.38;5053664;28;49696;-74
2021/10/22 08:55:00;;;;;;;;;8.00;8.00;;;;;-142.59;100.00;56100.38;5053582;28;49765;-75
2021/10/22 08:57:25;;;;;;;;;12.00;10.75;;;;;-142.59;100.00;56100.38;5054781;28;49695;-74
2021/10/22 08:59:53;;;;;;;;;10.75;9.50;;;;;-142.59;100.00;56100.38;5053430;28;49763;-75
2021/10/22 09:02:24;;;;;;;;;10.25;7.00;;;;;-142.59;100.00;56100.38;5037847;28;49957;-77
2021/10/22 09:04:50;;;;;;;;;9.00;7.25;;;;;-142.59;100.00;56100.38;5019652;28;50146;-81
2021/10/22 09:07:44;;;;;;;;;6.25;6.25;;;;;-142.59;100.00;56100.38;5065148;28;49252;-80
2021/10/22 09:10:20;;;;;;;;;9.00;8.00;;;;;-142.59;100.00;56100.38;5059755;28;50933;-74
2021/10/22 09:12:56;;;;;;;;;7.25;7.25;;;;;-142.59;100.00;56100.38;5022287;28;50193;-82
2021/10/22 09:15:27;;;;;;;;;12.50;9.75;;;;;-142.59;100.00;56100.38;5051373;28;49809;-78
2021/10/22 09:17:54;;;;;;;;;11.00;8.00;;;;;-142.59;100.00;56100.38;5034267;28;49884;-76
2021/10/22 09:20:21;;;;;;;;;12.00;11.50;;;;;-142.59;100.00;56100.38;5052958;28;50131;-79
2021/10/22 09:22:57;;;;;;;;;10.00;10.00;;;;;-142.59;100.00;56100.38;5035743;28;49811;-74
2021/10/22 09:25:24;;;;;;;;;8.00;8.00;;;;;-142.59;100.00;56100.38;5068289;28;49793;-78
2021/10/22 09:27:53;;;;;;;;;8.50;5.00;;;;;-142.59;100.00;56100.38;5039338;28;49745;-76
2021/10/22 09:30:24;;;;;;;;;5.75;3.00;;;;;-142.59;100.00;56100.38;5056203;28;49666;-74
2021/10/22 09:32:50;;;;;;;;;6.50;5.50;;;;;-142.59;100.00;56100.38;5054303;28;49640;-73
2021/10/22 09:35:19;;;;;;;;;8.50;6.75;;;;;-142.59;100.00;56100.38;5052792;28;49762;-73
2021/10/22 09:37:46;;;;;;;;;10.50;8.50;;;;;-142.59;100.00;56100.38;5029345;28;49583;-77
2021/10/22 09:40:11;;;;;;;;;7.50;5.75;;;;;-142.59;100.00;56100.38;5026693;28;49871;-74
2021/10/22 09:42:46;;;;;;;;;7.00;7.00;;;;;-142.59;100.00;56100.38;5040857;28;69843;-73
2021/10/22 09:45:13;;;;;;;;;6.00;5.50;;;;;-142.59;100.00;56100.38;5059676;28;49445;-82
2021/10/22 09:47:39;;;;;;;;;9.25;7.75;;;;;-142.59;100.00;56100.38;5020443;28;49983;-71
2021/10/22 09:50:07;;;;;;;;;7.00;7.00;;;;;-142.59;100.00;56100.38;5054307;28;75123;-70
2021/10/22 09:52:33;;;;;;;;;6.75;6.75;;;;;-142.59;100.00;56100.38;5051249;28;49881;-72
2021/10/22 09:55:15;;;;;;;;;6.00;4.00;;;;;-142.59;100.00;56100.38;5049904;28;49623;-72
2021/10/22 09:57:40;;;;;;;;;7.00;4.00;;;;;-142.59;100.00;56100.38;5020348;28;49787;-79
2021/10/22 10:00:06;;;;;;;;;3.50;3.50;;;;;-142.59;100.00;56100.38;5030996;28;52350;-69
2021/10/22 10:02:32;;;;;;;;;6.25;4.50;;;;;-142.59;100.00;56100.38;5051928;28;49695;-68
2021/10/22 10:04:57;;;;;;;;;3.75;1.00;;;;;-142.59;100.00;56100.38;5016167;28;50257;-70
2021/10/22 10:07:24;;;;;;;;;7.00;6.50;;;;;-142.59;100.00;56100.38;5012687;28;49910;-69
2021/10/22 10:09:50;;;;;;;;;6.75;5.00;;;;;-142.59;100.00;56100.38;5013219;28;50344;-69
2021/10/22 10:12:15;;;;;;;;;3.00;3.00;;;;;-142.59;100.00;56100.38;5030902;28;49784;-67
2021/10/22 10:14:40;;;;;;;;;5.00;4.00;;;;;-142.59;100.00;56100.38;5029333;28;55922;-73
2021/10/22 10:17:06;;;;;;;;;6.75;4.25;;;;;-142.59;100.00;56100.38;5015791;28;57185;-66
2021/10/22 10:19:39;;;;;;;;;7.25;6.75;;;;;-142.59;100.00;56100.38;5030540;28;49849;-67
2021/10/22 10:22:11;;;;;;;;;6.00;4.00;;;;;-142.59;100.00;56100.38;5029271;28;49716;-66
2021/10/22 10:24:38;;;;;;;;;7.25;6.00;;;;;-142.59;100.00;56100.38;5010975;28;49888;-66
2021/10/22 10:27:09;;;;;;;;;5.75;5.75;;;;;-142.59;100.00;56100.38;5028847;28;49628;-66
2021/10/22 10:30:04;;;;;;;;;1.50;1.50;;;;;-142.59;100.00;56100.38;5029101;28;50438;-68
2021/10/22 10:32:30;;;;;;;;;3.00;3.00;;;;;-142.59;100.00;56100.38;5025829;28;49987;-68
2021/10/22 10:35:03;;;;;;;;;5.50;3.75;;;;;-142.59;100.00;56100.38;5028372;28;49860;-66
2021/10/22 10:37:37;;;;;;;;;5.25;4.00;;;;;-142.59;100.00;56100.38;4994633;28;49826;-67
2021/10/22 10:40:07;;;;;;;;;3.00;3.00;;;;;-142.59;100.00;56100.38;4996489;28;50357;-69
2021/10/22 10:42:45;;;;;;;;;6.25;4.00;;;;;-142.59;100.00;56100.38;5013313;28;49646;-66
2021/10/22 10:45:24;;;;;;;;;6.00;3.00;;;;;-142.59;100.00;56100.38;5031017;28;50206;-66
2021/10/22 10:47:53;;;;;;;;;4.50;4.50;;;;;-142.59;100.00;56100.38;5030368;28;49168;-66
2021/10/22 10:50:37;;;;;;;;;4.75;2.00;;;;;-142.59;100.00;56100.38;5030437;28;50363;-67
2021/10/22 10:53:03;;;;;;;;;3.00;2.00;;;;;-142.59;100.00;56100.38;5032944;28;49599;-68
2021/10/22 10:55:33;;;;;;;;;3.25;3.25;;;;;-142.59;100.00;56100.38;5033873;28;49800;-65
2021/10/22 10:58:07;;;;;;;;;5.25;4.75;;;;;-142.59;100.00;56100.38;5034274;28;49684;-68
2021/10/22 11:00:37;;;;;;;;;3.50;1.50;;;;;-142.59;100.00;56100.38;5033669;28;50154;-65
2021/10/22 11:03:03;;;;;;;;;3.00;2.50;;;;;-142.59;100.00;56100.38;5033611;28;49668;-66